Time;durP1;ratioP1;P1;durP2;ratioP2;P2;SDS_P1;SDS_P2;PMS_P1;PMS_P2;Temp;Humidity;BMP_temperature;BMP_pressure;BME280_temperature;BME280_humidity;BME280_pressure;Samples;Min_cycle;Max_cycle;Signal;HPM_P1;HPM_P2
2023/04/20 00:01:05;;;;;;;17.77;4.20;;;6.90;99.90;;;;;;5037625;28;20029;-75
2023/04/20 00:03:31;;;;;;;20.20;4.50;;;6.90;99.90;;;;;;5049128;28;20051;-75
2023/04/20 00:06:00;;;;;;;17.45;3.47;;;6.80;99.90;;;;;;5071153;28;20365;-77
2023/04/20 00:08:29;;;;;;;12.05;3.80;;;6.80;99.90;;;;;;5081462;28;20458;-76
2023/04/20 00:10:54;;;;;;;18.98;4.00;;;6.80;99.90;;;;;;5067565;28;20115;-76
2023/04/20 00:13:20;;;;;;;25.25;4.88;;;6.90;99.90;;;;;;5067831;28;20107;-75
2023/04/20 00:15:46;;;;;;;17.13;3.40;;;7.00;99.90;;;;;;5075545;28;20112;-76
2023/04/20 00:18:11;;;;;;;14.80;3.83;;;7.00;99.90;;;;;;5054298;28;20679;-76
2023/04/20 00:20:37;;;;;;;11.77;3.58;;;6.90;99.90;;;;;;5079098;28;20042;-76
2023/04/20 00:23:03;;;;;;;13.02;3.53;;;6.80;99.90;;;;;;5061454;28;20036;-75
2023/04/20 00:25:29;;;;;;;12.68;3.50;;;6.80;99.90;;;;;;5061779;28;20038;-76
2023/04/20 00:27:55;;;;;;;14.20;3.25;;;6.90;99.90;;;;;;5074525;28;20619;-75
2023/04/20 00:30:21;;;;;;;16.15;3.97;;;6.80;99.90;;;;;;5043230;28;20031;-75
2023/04/20 00:32:47;;;;;;;16.33;3.75;;;6.90;99.90;;;;;;5075723;28;20074;-76
2023/04/20 00:35:12;;;;;;;13.18;4.18;;;6.80;99.90;;;;;;5059485;28;20502;-75
2023/04/20 00:37:38;;;;;;;18.23;3.63;;;6.80;99.90;;;;;;5075711;28;20446;-75
2023/04/20 00:40:05;;;;;;;15.85;3.85;;;6.80;99.90;;;;;;5079248;28;20274;-76
2023/04/20 00:42:31;;;;;;;10.50;3.17;;;6.80;99.90;;;;;;5061226;28;20168;-76
2023/04/20 00:44:56;;;;;;;14.75;3.80;;;6.80;99.90;;;;;;5058720;28;20095;-76
2023/04/20 00:47:22;;;;;;;14.88;3.30;;;6.90;99.90;;;;;;5075452;28;20040;-75
2023/04/20 00:49:48;;;;;;;17.85;4.07;;;6.80;99.90;;;;;;5070027;28;20124;-75
2023/04/20 00:52:14;;;;;;;13.98;3.83;;;6.70;99.90;;;;;;5055052;28;20021;-75
2023/04/20 00:54:39;;;;;;;14.07;3.72;;;6.70;99.90;;;;;;5055884;28;20174;-75
2023/04/20 00:57:12;;;;;;;9.35;3.20;;;6.70;99.90;;;;;;5058306;28;20024;-75
2023/04/20 00:59:39;;;;;;;14.70;3.80;;;6.70;99.90;;;;;;5063321;28;20036;-76
2023/04/20 01:02:05;;;;;;;10.43;3.75;;;6.60;99.90;;;;;;5058895;28;20067;-75
2023/04/20 01:04:31;;;;;;;14.27;3.72;;;6.70;99.90;;;;;;5072312;28;20486;-76
2023/04/20 01:06:56;;;;;;;17.55;3.53;;;6.60;99.90;;;;;;5071361;28;20048;-76
2023/04/20 01:09:22;;;;;;;13.10;3.85;;;6.60;99.90;;;;;;5059297;28;20162;-75
2023/04/20 01:11:48;;;;;;;14.07;3.92;;;6.60;99.90;;;;;;5069762;28;20351;-76
2023/04/20 01:14:13;;;;;;;12.82;3.53;;;6.60;99.90;;;;;;5059701;28;20112;-76
2023/04/20 01:16:39;;;;;;;16.05;3.60;;;6.50;99.90;;;;;;5060629;28;20245;-75
2023/04/20 01:19:04;;;;;;;13.48;3.67;;;6.50;99.90;;;;;;5061448;28;20107;-75
2023/04/20 01:21:30;;;;;;;13.88;3.83;;;6.50;99.90;;;;;;5063413;28;20036;-76
2023/04/20 01:23:56;;;;;;;11.40;3.55;;;6.60;99.90;;;;;;5070805;28;20443;-76
2023/04/20 01:26:24;;;;;;;15.65;4.22;;;6.50;99.90;;;;;;5062710;28;20147;-76
2023/04/20 01:28:50;;;;;;;11.60;4.57;;;6.50;99.90;;;;;;5071323;28;20032;-76
2023/04/20 01:31:16;;;;;;;16.05;3.80;;;6.50;99.90;;;;;;5070934;28;20043;-76
2023/04/20 01:33:41;;;;;;;18.67;4.50;;;6.50;99.90;;;;;;5062577;28;20490;-76
2023/04/20 01:36:08;;;;;;;14.57;3.83;;;6.50;99.90;;;;;;5081668;28;20107;-76
2023/04/20 01:38:35;;;;;;;17.55;3.90;;;6.50;99.90;;;;;;5077276;28;20523;-76
2023/04/20 01:41:05;;;;;;;15.52;3.42;;;6.40;99.90;;;;;;5074310;28;20139;-76
2023/04/20 01:43:33;;;;;;;16.58;4.13;;;6.40;99.90;;;;;;5081166;28;20047;-75
2023/04/20 01:45:59;;;;;;;15.43;4.53;;;6.30;99.90;;;;;;5070892;28;20084;-76
2023/04/20 01:48:25;;;;;;;18.67;4.65;;;6.30;99.90;;;;;;5037047;28;20120;-76
2023/04/20 01:50:51;;;;;;;12.43;3.97;;;6.30;99.90;;;;;;5056495;28;20032;-75
2023/04/20 01:53:17;;;;;;;15.25;3.97;;;6.30;99.90;;;;;;5057496;28;20037;-75
2023/04/20 01:55:42;;;;;;;15.00;4.25;;;6.20;99.90;;;;;;5060478;28;20091;-75
2023/04/20 01:58:08;;;;;;;18.23;5.13;;;6.20;99.90;;;;;;5059188;28;20119;-75
2023/04/20 02:00:34;;;;;;;13.38;4.63;;;6.10;99.90;;;;;;5066097;28;20099;-75
2023/04/20 02:02:59;;;;;;;14.55;4.10;;;6.00;99.90;;;;;;5055311;28;20513;-76
2023/04/20 02:05:25;;;;;;;14.95;5.47;;;6.00;99.90;;;;;;5054564;28;20052;-76
2023/04/20 02:07:51;;;;;;;16.48;4.63;;;6.10;99.90;;;;;;5060426;28;20028;-76
2023/04/20 02:10:17;;;;;;;20.08;4.78;;;6.20;99.90;;;;;;5056865;28;20483;-76
2023/04/20 02:12:43;;;;;;;14.60;4.40;;;6.10;99.90;;;;;;5055861;28;20036;-76
2023/04/20 02:15:09;;;;;;;15.70;5.20;;;6.10;99.90;;;;;;5057288;28;20289;-75
2023/04/20 02:17:37;;;;;;;15.63;4.18;;;6.00;99.90;;;;;;5041476;28;20036;-75
2023/04/20 02:20:08;;;;;;;19.27;4.72;;;5.90;99.90;;;;;;5059048;28;20495;-75
2023/04/20 02:22:34;;;;;;;13.15;4.90;;;5.90;99.90;;;;;;5058607;28;20252;-76
2023/04/20 02:25:00;;;;;;;13.25;4.47;;;5.90;99.90;;;;;;5049887;28;20028;-76
2023/04/20 02:27:27;;;;;;;17.90;4.95;;;5.90;99.90;;;;;;5057492;28;20020;-75
2023/04/20 02:29:52;;;;;;;17.90;5.07;;;5.80;99.90;;;;;;5053377;28;20024;-76
2023/04/20 02:32:18;;;;;;;15.63;4.15;;;5.80;99.90;;;;;;5075800;28;20094;-75
2023/04/20 02:34:43;;;;;;;10.80;3.80;;;5.80;99.90;;;;;;5074031;28;20125;-76
2023/04/20 02:37:09;;;;;;;16.17;4.63;;;5.70;99.90;;;;;;5036350;28;20056;-76
2023/04/20 02:39:35;;;;;;;12.63;4.47;;;5.70;99.90;;;;;;5048998;28;20028;-75
2023/04/20 02:42:00;;;;;;;12.93;4.18;;;5.60;99.90;;;;;;5063902;28;20044;-76
2023/04/20 02:44:26;;;;;;;14.02;4.95;;;5.60;99.90;;;;;;5064832;28;20048;-75
2023/04/20 02:46:51;;;;;;;12.25;4.60;;;5.60;99.90;;;;;;5068936;28;20460;-75
2023/04/20 02:49:17;;;;;;;16.00;4.97;;;5.50;99.90;;;;;;5068672;28;20056;-75
2023/04/20 02:51:42;;;;;;;12.98;4.57;;;5.50;99.90;;;;;;5068186;28;20442;-81
2023/04/20 02:54:08;;;;;;;10.73;3.67;;;5.50;99.90;;;;;;5061610;28;20055;-80
2023/04/20 02:56:34;;;;;;;12.27;4.57;;;5.50;99.90;;;;;;5046494;28;20440;-81
2023/04/20 02:58:59;;;;;;;20.38;5.15;;;5.30;99.90;;;;;;5065078;28;20032;-81
2023/04/20 03:01:25;;;;;;;18.58;4.35;;;5.30;99.90;;;;;;5050561;28;20137;-81
2023/04/20 03:03:51;;;;;;;11.85;4.35;;;5.30;99.90;;;;;;5077546;28;20146;-81
2023/04/20 03:06:16;;;;;;;11.50;4.63;;;5.30;99.90;;;;;;5069540;28;20242;-81
2023/04/20 03:08:42;;;;;;;11.38;4.40;;;5.30;99.90;;;;;;5046197;28;20024;-81
2023/04/20 03:11:08;;;;;;;11.45;4.22;;;5.20;99.90;;;;;;5067210;28;20039;-81
2023/04/20 03:13:33;;;;;;;14.15;4.63;;;5.20;99.90;;;;;;5039744;28;20029;-81
2023/04/20 03:15:59;;;;;;;14.93;4.63;;;5.20;99.90;;;;;;5066338;28;20034;-82
2023/04/20 03:18:24;;;;;;;15.50;4.68;;;5.20;99.90;;;;;;5064177;28;20369;-81
2023/04/20 03:20:51;;;;;;;12.65;6.13;;;5.20;99.90;;;;;;5073917;28;20032;-81
2023/04/20 03:23:17;;;;;;;16.05;5.63;;;5.10;99.90;;;;;;5080978;28;20036;-81
2023/04/20 03:25:43;;;;;;;18.50;5.00;;;5.00;99.90;;;;;;5065077;28;20540;-81
2023/04/20 03:28:09;;;;;;;18.10;4.95;;;5.00;99.90;;;;;;5084879;28;20039;-81
2023/04/20 03:30:34;;;;;;;25.13;5.97;;;5.00;99.90;;;;;;5084637;28;20032;-81
2023/04/20 03:33:00;;;;;;;17.27;5.30;;;5.00;99.90;;;;;;5082974;28;20441;-81
2023/04/20 03:35:26;;;;;;;14.32;5.50;;;5.00;99.90;;;;;;5083106;28;20020;-81
2023/04/20 03:37:51;;;;;;;17.73;5.30;;;5.00;99.90;;;;;;5080339;28;20442;-81
2023/04/20 03:40:17;;;;;;;11.95;5.43;;;4.90;99.90;;;;;;5066328;28;20372;-81
2023/04/20 03:42:43;;;;;;;13.93;5.65;;;4.90;99.90;;;;;;5071017;28;20071;-80
2023/04/20 03:45:09;;;;;;;19.95;6.38;;;4.90;99.90;;;;;;5081726;28;20295;-80
2023/04/20 03:47:35;;;;;;;13.77;5.00;;;4.90;99.90;;;;;;5077576;28;20039;-81
2023/04/20 03:50:00;;;;;;;21.42;6.57;;;4.90;99.90;;;;;;5082273;28;20020;-81
2023/04/20 03:52:26;;;;;;;16.58;5.75;;;4.90;99.90;;;;;;5064966;28;20451;-81
2023/04/20 03:54:51;;;;;;;20.60;6.35;;;4.80;99.90;;;;;;5082144;28;20057;-81
2023/04/20 03:57:17;;;;;;;15.05;5.63;;;4.80;99.90;;;;;;5068707;28;20134;-81
2023/04/20 03:59:43;;;;;;;15.95;5.70;;;4.80;99.90;;;;;;5082239;28;20032;-81
2023/04/20 04:02:09;;;;;;;16.02;6.03;;;4.80;99.90;;;;;;5061666;28;20320;-81
2023/04/20 04:04:35;;;;;;;15.60;5.80;;;4.80;99.90;;;;;;5048441;28;20472;-81
2023/04/20 04:07:01;;;;;;;13.50;5.30;;;4.70;99.90;;;;;;5085101;28;20092;-81
2023/04/20 04:09:26;;;;;;;13.38;5.90;;;4.80;99.90;;;;;;5080300;28;20137;-81
2023/04/20 04:11:52;;;;;;;17.00;6.22;;;4.70;99.90;;;;;;5065198;28;20033;-80
2023/04/20 04:14:17;;;;;;;23.15;7.15;;;4.80;99.90;;;;;;5073672;28;20111;-80
2023/04/20 04:16:43;;;;;;;14.18;6.30;;;4.70;99.90;;;;;;5057894;28;20079;-81
2023/04/20 04:19:09;;;;;;;13.98;5.68;;;4.80;99.90;;;;;;5080356;28;20053;-81
2023/04/20 04:21:35;;;;;;;15.10;6.65;;;4.70;99.90;;;;;;5088036;28;20051;-81
2023/04/20 04:24:01;;;;;;;16.20;6.47;;;4.80;99.90;;;;;;5088449;28;20035;-80
2023/04/20 04:26:27;;;;;;;16.42;6.35;;;4.70;99.90;;;;;;5083249;28;20024;-81
2023/04/20 04:28:52;;;;;;;18.88;6.95;;;4.70;99.90;;;;;;5074359;28;20508;-81
2023/04/20 04:31:18;;;;;;;18.67;6.50;;;4.60;99.90;;;;;;5069136;28;20028;-80
2023/04/20 04:33:45;;;;;;;13.32;6.25;;;4.60;99.90;;;;;;5078674;28;20032;-81
2023/04/20 04:36:11;;;;;;;12.52;6.00;;;4.60;99.90;;;;;;5074875;28;20447;-82
2023/04/20 04:38:37;;;;;;;21.00;7.18;;;4.60;99.90;;;;;;5064904;28;20024;-82
2023/04/20 04:41:03;;;;;;;17.63;6.63;;;4.60;99.90;;;;;;5065177;28;20530;-81
2023/04/20 04:43:29;;;;;;;19.55;6.97;;;4.60;99.90;;;;;;5066514;28;20087;-81
2023/04/20 04:45:57;;;;;;;14.80;6.75;;;4.60;99.90;;;;;;5066409;28;20438;-82
2023/04/20 04:48:22;;;;;;;14.05;6.57;;;4.60;99.90;;;;;;5089648;28;20399;-82
2023/04/20 04:50:48;;;;;;;16.85;6.80;;;4.60;99.90;;;;;;5078673;28;20028;-82
2023/04/20 04:53:14;;;;;;;14.40;6.70;;;4.50;99.90;;;;;;5070185;28;20494;-82
2023/04/20 04:55:39;;;;;;;14.32;6.53;;;4.50;99.90;;;;;;5049274;28;20032;-82
2023/04/20 04:58:05;;;;;;;19.17;7.32;;;4.50;99.90;;;;;;5065209;28;20139;-82
2023/04/20 05:00:31;;;;;;;17.42;7.43;;;4.50;99.90;;;;;;5076714;28;20029;-82
2023/04/20 05:02:56;;;;;;;18.63;7.35;;;4.50;99.90;;;;;;5057592;28;20036;-82
2023/04/20 05:05:24;;;;;;;18.80;7.28;;;4.40;99.90;;;;;;5060388;28;20052;-82
2023/04/20 05:07:49;;;;;;;20.33;7.40;;;4.40;99.90;;;;;;5064845;28;20429;-81
2023/04/20 05:10:15;;;;;;;21.88;7.93;;;4.50;99.90;;;;;;5082639;28;20028;-82
2023/04/20 05:12:41;;;;;;;19.77;7.20;;;4.50;99.90;;;;;;5083948;28;20103;-82
2023/04/20 05:15:07;;;;;;;12.15;7.07;;;4.50;99.90;;;;;;5047740;28;20036;-82
2023/04/20 05:17:32;;;;;;;21.33;7.68;;;4.50;99.90;;;;;;5063178;28;20560;-82
2023/04/20 05:19:58;;;;;;;15.25;9.00;;;4.60;99.90;;;;;;5085528;28;20035;-82
2023/04/20 05:22:24;;;;;;;14.27;7.18;;;4.60;99.90;;;;;;5078933;28;20395;-82
2023/04/20 05:24:49;;;;;;;20.67;7.10;;;4.70;99.90;;;;;;5072611;28;20029;-82
2023/04/20 05:27:15;;;;;;;14.93;7.63;;;4.70;99.90;;;;;;5052992;28;20023;-82
2023/04/20 05:29:40;;;;;;;16.30;8.00;;;4.80;99.90;;;;;;5047971;28;20032;-82
2023/04/20 05:32:06;;;;;;;17.63;7.78;;;4.80;99.90;;;;;;5065424;28;20067;-82
2023/04/20 05:34:32;;;;;;;14.15;7.88;;;4.90;99.90;;;;;;5047888;28;20132;-82
2023/04/20 05:36:58;;;;;;;17.08;7.80;;;5.00;99.90;;;;;;5064331;28;20089;-82
2023/04/20 05:39:24;;;;;;;15.30;7.20;;;5.00;99.90;;;;;;5069611;28;20067;-82
2023/04/20 05:41:50;;;;;;;20.30;6.82;;;5.10;99.90;;;;;;5066228;28;20498;-82
2023/04/20 05:44:15;;;;;;;15.45;7.45;;;5.10;99.90;;;;;;5067705;28;20036;-82
2023/04/20 05:46:41;;;;;;;15.95;6.80;;;5.30;99.90;;;;;;5064214;28;20028;-82
2023/04/20 05:49:07;;;;;;;16.58;6.85;;;5.30;99.90;;;;;;5064249;28;20044;-82
2023/04/20 05:51:32;;;;;;;17.25;7.50;;;5.40;99.90;;;;;;5039989;28;20036;-82
2023/04/20 05:54:01;;;;;;;13.80;7.00;;;5.50;99.90;;;;;;5050541;28;20039;-83
2023/04/20 05:56:27;;;;;;;14.98;6.55;;;5.60;99.90;;;;;;5046947;28;20067;-82
2023/04/20 05:58:54;;;;;;;15.48;6.20;;;5.70;99.90;;;;;;5065067;28;20056;-81
2023/04/20 06:01:20;;;;;;;15.73;6.35;;;5.80;99.90;;;;;;5075274;28;20031;-82
2023/04/20 06:03:47;;;;;;;15.60;6.05;;;6.00;99.90;;;;;;5042936;28;20143;-82
2023/04/20 06:06:13;;;;;;;321.10;156.50;;;6.20;99.90;;;;;;5063040;28;20157;-82
2023/04/20 06:08:39;;;;;;;244.05;99.68;;;6.50;99.90;;;;;;5054303;28;20032;-82
2023/04/20 06:11:04;;;;;;;31.05;13.82;;;6.70;99.90;;;;;;5047882;28;20432;-82
2023/04/20 06:13:30;;;;;;;20.40;6.80;;;6.80;99.90;;;;;;5064234;28;20040;-82
2023/04/20 06:15:56;;;;;;;15.65;6.13;;;7.10;99.90;;;;;;5084769;28;20269;-82
2023/04/20 06:18:22;;;;;;;11.77;5.30;;;7.40;99.90;;;;;;5082682;28;20457;-82
2023/04/20 06:20:47;;;;;;;12.90;5.53;;;7.90;99.90;;;;;;5044272;28;20121;-82
2023/04/20 06:23:13;;;;;;;15.85;5.85;;;8.50;99.90;;;;;;5048522;28;20047;-82
2023/04/20 06:25:39;;;;;;;65.53;28.95;;;8.90;99.90;;;;;;5085642;28;20035;-82
2023/04/20 06:28:06;;;;;;;12.68;5.53;;;9.60;99.90;;;;;;5074896;28;20046;-82
2023/04/20 06:30:35;;;;;;;9.80;4.60;;;9.90;99.90;;;;;;5058338;28;20863;-82
2023/04/20 06:33:01;;;;;;;14.75;5.65;;;10.40;97.30;;;;;;5061672;28;20037;-82
2023/04/20 06:35:27;;;;;;;10.63;4.35;;;10.40;96.30;;;;;;5082800;28;20016;-82
2023/04/20 06:37:56;;;;;;;10.40;4.40;;;10.50;96.70;;;;;;5078573;28;20028;-82
2023/04/20 06:40:22;;;;;;;488.63;223.55;;;10.70;95.20;;;;;;5058858;28;20025;-82
2023/04/20 06:42:47;;;;;;;18.55;7.72;;;11.30;93.40;;;;;;5046192;28;20062;-82
2023/04/20 06:45:13;;;;;;;12.75;4.00;;;12.60;88.40;;;;;;5062773;28;20092;-82
2023/04/20 06:47:38;;;;;;;8.25;4.05;;;12.60;83.70;;;;;;5057652;28;20040;-82
2023/04/20 06:50:08;;;;;;;10.98;4.80;;;12.60;85.70;;;;;;5041735;28;20037;-82
2023/04/20 06:52:35;;;;;;;16.13;5.03;;;12.70;71.90;;;;;;5066259;28;20342;-82
2023/04/20 06:55:01;;;;;;;9.63;4.55;;;12.60;79.10;;;;;;5070477;28;20036;-81
2023/04/20 06:57:26;;;;;;;8.13;3.75;;;12.60;85.60;;;;;;5048069;28;20052;-82
2023/04/20 06:59:52;;;;;;;11.30;4.32;;;13.30;80.30;;;;;;5066121;28;20388;-81
2023/04/20 07:02:17;;;;;;;8.50;3.75;;;13.80;74.80;;;;;;5056196;28;20110;-82
2023/04/20 07:04:43;;;;;;;10.32;4.40;;;13.80;68.10;;;;;;5057783;28;20051;-81
2023/04/20 07:07:08;;;;;;;9.02;4.63;;;14.20;61.50;;;;;;5064810;28;20737;-81
2023/04/20 07:09:34;;;;;;;11.70;4.10;;;14.70;67.20;;;;;;5057462;28;20039;-82
2023/04/20 07:12:00;;;;;;;11.27;3.80;;;15.30;58.30;;;;;;5074254;28;20024;-83
2023/04/20 07:14:25;;;;;;;10.60;4.55;;;15.40;48.30;;;;;;5058730;28;20028;-82
2023/04/20 07:16:52;;;;;;;12.70;4.72;;;16.30;50.20;;;;;;5049623;28;20024;-82
2023/04/20 07:19:17;;;;;;;11.25;4.35;;;17.60;49.40;;;;;;5078795;28;20051;-82
2023/04/20 07:21:43;;;;;;;14.13;4.60;;;19.00;42.00;;;;;;5073342;28;20084;-83
2023/04/20 07:24:08;;;;;;;8.43;3.22;;;20.10;39.20;;;;;;5047870;28;20070;-82
2023/04/20 07:26:34;;;;;;;9.13;2.85;;;19.00;40.30;;;;;;5064060;28;20039;-82
2023/04/20 07:29:00;;;;;;;9.93;2.80;;;17.80;40.00;;;;;;5048354;28;20034;-84
2023/04/20 07:31:25;;;;;;;6.20;2.65;;;17.00;41.20;;;;;;5055831;28;20021;-82
2023/04/20 07:33:51;;;;;;;8.15;3.00;;;16.10;45.10;;;;;;5067442;28;20097;-83
2023/04/20 07:36:17;;;;;;;7.88;3.15;;;15.80;46.10;;;;;;5082995;28;20036;-82
2023/04/20 07:38:42;;;;;;;7.88;2.47;;;16.40;45.40;;;;;;5058344;28;20028;-82
2023/04/20 07:41:09;;;;;;;7.60;2.55;;;16.20;46.00;;;;;;5071435;28;20396;-83
2023/04/20 07:43:35;;;;;;;10.95;2.63;;;16.20;45.00;;;;;;5062425;28;20066;-82
2023/04/20 07:46:00;;;;;;;5.50;2.47;;;17.40;44.10;;;;;;5055358;28;20036;-83
2023/04/20 07:48:26;;;;;;;8.38;2.60;;;18.40;41.90;;;;;;5053869;28;20432;-83
2023/04/20 07:50:51;;;;;;;8.57;2.65;;;21.10;36.50;;;;;;5050235;28;20031;-82
2023/04/20 07:53:17;;;;;;;5.05;2.38;;;23.40;32.10;;;;;;5051874;28;20036;-82
2023/04/20 07:55:43;;;;;;;4.90;2.10;;;25.90;29.80;;;;;;5071251;28;20036;-82
2023/04/20 07:58:09;;;;;;;7.75;2.25;;;27.10;28.40;;;;;;5058806;28;20047;-83
2023/04/20 08:00:34;;;;;;;6.13;2.10;;;27.70;25.40;;;;;;5067841;28;20033;-81
2023/04/20 08:03:00;;;;;;;5.78;2.20;;;27.60;27.00;;;;;;5067136;28;20043;-81
2023/04/20 08:05:26;;;;;;;6.45;2.20;;;26.70;25.50;;;;;;5063615;28;20131;-83
2023/04/20 08:07:51;;;;;;;7.18;2.13;;;28.40;26.80;;;;;;5060955;28;20029;-79
2023/04/20 08:10:17;;;;;;;5.75;2.15;;;28.00;24.60;;;;;;5061766;28;20330;-81
2023/04/20 08:12:43;;;;;;;6.20;1.98;;;27.80;25.30;;;;;;5046626;28;20032;-81
2023/04/20 08:15:09;;;;;;;7.07;2.47;;;29.50;25.70;;;;;;5067284;28;20062;-82
2023/04/20 08:17:35;;;;;;;8.15;2.00;;;30.10;24.10;;;;;;5048675;28;20189;-82
2023/04/20 08:20:01;;;;;;;5.20;1.73;;;30.20;23.60;;;;;;5072182;28;20027;-81
2023/04/20 08:22:28;;;;;;;3.97;1.70;;;30.60;23.50;;;;;;5063801;28;20471;-81
2023/04/20 08:24:57;;;;;;;7.18;1.98;;;30.40;23.20;;;;;;5082506;28;20056;-81
2023/04/20 08:27:24;;;;;;;8.32;1.90;;;30.60;23.60;;;;;;5085221;28;20031;-80
2023/04/20 08:29:49;;;;;;;5.13;2.05;;;31.50;22.50;;;;;;5055815;28;20081;-82
2023/04/20 08:32:17;;;;;;;5.30;2.17;;;30.80;23.80;;;;;;5075502;28;20032;-78
2023/04/20 08:34:43;;;;;;;5.07;1.92;;;30.60;22.70;;;;;;5067608;28;20104;-80
2023/04/20 08:37:08;;;;;;;3.70;1.55;;;30.80;24.20;;;;;;5067724;28;20119;-80
2023/04/20 08:39:35;;;;;;;4.43;1.65;;;29.30;22.50;;;;;;5067425;28;20046;-80
2023/04/20 08:42:01;;;;;;;3.90;1.50;;;28.30;22.40;;;;;;5068573;28;20123;-81
2023/04/20 08:44:26;;;;;;;3.72;1.58;;;28.50;23.70;;;;;;5065066;28;20131;-82
2023/04/20 08:46:53;;;;;;;4.15;1.48;;;27.80;23.90;;;;;;5064940;28;20398;-82
2023/04/20 08:49:19;;;;;;;4.95;1.50;;;28.10;23.30;;;;;;5066474;28;20047;-81
2023/04/20 08:51:46;;;;;;;3.83;1.48;;;29.50;23.40;;;;;;5064594;28;20037;-80
2023/04/20 08:54:12;;;;;;;4.43;1.38;;;29.80;22.80;;;;;;5061641;28;20061;-80
2023/04/20 08:56:40;;;;;;;5.32;1.70;;;28.10;23.20;;;;;;5067156;28;20025;-80
2023/04/20 08:59:09;;;;;;;2.85;1.50;;;28.30;24.60;;;;;;5062534;28;20028;-80
2023/04/20 09:01:35;;;;;;;3.53;1.77;;;27.90;25.30;;;;;;5047595;28;20144;-83
2023/04/20 09:04:01;;;;;;;4.25;1.77;;;28.50;25.30;;;;;;5066261;28;20036;-83
2023/04/20 09:06:27;;;;;;;3.60;1.73;;;30.90;24.70;;;;;;5070376;28;20048;-83
2023/04/20 09:08:53;;;;;;;5.35;1.80;;;32.10;21.90;;;;;;5069596;28;20032;-82
2023/04/20 09:11:28;;;;;;;4.00;1.67;;;31.80;23.20;;;;;;5076877;28;20024;-83
2023/04/20 09:14:03;;;;;;;5.65;2.35;;;31.40;22.10;;;;;;5065744;28;20024;-82
2023/04/20 09:16:30;;;;;;;4.90;1.60;;;29.90;22.70;;;;;;5065404;28;20021;-82
2023/04/20 09:18:56;;;;;;;5.32;2.17;;;27.30;25.10;;;;;;5070130;28;20535;-82
2023/04/20 09:21:23;;;;;;;7.63;2.00;;;25.00;24.70;;;;;;5068244;28;20052;-87
2023/04/20 09:24:00;;;;;;;3.80;1.80;;;21.60;30.90;;;;;;5053108;28;20477;-83
2023/04/20 09:26:27;;;;;;;5.65;1.80;;;20.10;33.70;;;;;;5072670;28;20024;-87
2023/04/20 09:28:53;;;;;;;5.65;1.70;;;20.10;34.70;;;;;;5061488;28;20057;-86
2023/04/20 09:31:20;;;;;;;4.05;1.48;;;20.00;33.20;;;;;;5083257;28;20020;-81
2023/04/20 09:34:03;;;;;;;7.35;2.00;;;19.80;32.30;;;;;;5062237;28;20058;-83
2023/04/20 09:36:43;;;;;;;4.97;1.80;;;19.10;32.50;;;;;;5067047;28;20032;-83
2023/04/20 09:39:11;;;;;;;5.03;1.58;;;18.50;35.60;;;;;;5069988;28;20092;-85
2023/04/20 09:41:38;;;;;;;4.63;1.80;;;18.20;36.20;;;;;;5056762;28;20478;-83
2023/04/20 09:44:05;;;;;;;3.30;1.55;;;18.10;36.30;;;;;;5071636;28;20372;-84
2023/04/20 09:46:32;;;;;;;4.30;1.55;;;18.10;36.70;;;;;;5070106;28;20089;-84
2023/04/20 09:49:06;;;;;;;4.03;1.65;;;19.10;32.70;;;;;;5043570;28;20040;-83
2023/04/20 09:51:34;;;;;;;3.80;1.45;;;22.30;31.70;;;;;;5064125;28;20028;-82
2023/04/20 09:54:02;;;;;;;6.55;1.50;;;24.80;25.80;;;;;;5061702;28;20324;-83
2023/04/20 09:56:29;;;;;;;3.17;1.55;;;27.00;25.40;;;;;;5064167;28;20173;-82
2023/04/20 09:58:56;;;;;;;5.13;1.40;;;26.20;24.00;;;;;;5070104;28;20199;-83
2023/04/20 10:01:22;;;;;;;4.55;1.40;;;28.00;23.60;;;;;;5069530;28;20088;-82
2023/04/20 10:03:48;;;;;;;6.95;1.65;;;29.90;25.00;;;;;;5064384;28;20044;-83
2023/04/20 10:06:22;;;;;;;2.55;1.17;;;31.50;22.00;;;;;;5068315;28;20044;-82
2023/04/20 10:08:49;;;;;;;6.72;1.42;;;31.00;22.80;;;;;;5071481;28;20113;-85
2023/04/20 10:11:27;;;;;;;3.25;1.20;;;29.20;22.20;;;;;;5046292;28;20119;-85
2023/04/20 10:13:53;;;;;;;3.78;1.13;;;27.70;22.90;;;;;;5082107;28;20028;-85
2023/04/20 10:16:20;;;;;;;4.93;1.27;;;25.90;25.10;;;;;;5077921;28;20081;-84
2023/04/20 10:19:15;;;;;;;5.05;1.10;;;25.00;26.20;;;;;;5080781;28;20123;-84
2023/04/20 10:21:49;;;;;;;1.70;0.98;;;23.60;26.50;;;;;;5048970;28;20039;-85
2023/04/20 10:24:28;;;;;;;2.88;1.15;;;22.20;27.90;;;;;;5066432;28;20040;-85
2023/04/20 10:26:54;;;;;;;4.75;1.50;;;21.40;29.40;;;;;;5061062;28;20100;-85
2023/04/20 10:29:24;;;;;;;4.13;1.08;;;21.20;29.40;;;;;;5051761;28;20054;-87
2023/04/20 10:31:50;;;;;;;1.45;0.90;;;20.60;31.40;;;;;;5067827;28;20121;-85
2023/04/20 10:34:17;;;;;;;3.67;1.17;;;21.50;30.60;;;;;;5047579;28;20040;-87
2023/04/20 10:36:43;;;;;;;2.55;0.85;;;22.50;29.90;;;;;;5063561;28;20033;-87
2023/04/20 10:39:16;;;;;;;4.75;1.20;;;21.80;28.80;;;;;;5045897;28;20036;-86
2023/04/20 10:42:00;;;;;;;4.40;1.20;;;22.50;28.90;;;;;;5047031;28;20055;-85
2023/04/20 10:44:26;;;;;;;3.97;1.08;;;22.70;29.80;;;;;;5070815;28;20032;-86
2023/04/20 10:46:53;;;;;;;3.85;1.13;;;23.10;26.30;;;;;;5071699;28;20028;-84
2023/04/20 10:49:18;;;;;;;2.25;1.00;;;23.00;26.70;;;;;;5060858;28;20032;-84
2023/04/20 10:51:52;;;;;;;4.10;1.20;;;24.40;26.90;;;;;;5065525;28;20027;-86
2023/04/20 10:54:18;;;;;;;3.15;1.20;;;27.10;25.20;;;;;;5064173;28;20063;-85
2023/04/20 10:56:46;;;;;;;3.05;1.20;;;26.60;22.50;;;;;;5040244;28;20446;-83
2023/04/20 10:59:17;;;;;;;3.58;1.10;;;25.30;23.50;;;;;;5063171;28;20546;-83
2023/04/20 11:01:44;;;;;;;6.40;1.67;;;24.00;25.10;;;;;;5044320;28;20024;-83
2023/04/20 11:04:13;;;;;;;2.67;1.50;;;22.60;27.40;;;;;;5064765;28;20052;-84
2023/04/20 11:06:40;;;;;;;4.22;1.77;;;21.20;27.60;;;;;;5070709;28;20056;-85
2023/04/20 11:09:19;;;;;;;3.90;1.13;;;20.00;31.30;;;;;;5072554;28;20047;-86
2023/04/20 11:11:45;;;;;;;2.85;1.35;;;19.50;32.90;;;;;;5046922;28;20027;-84
2023/04/20 11:14:12;;;;;;;4.93;1.25;;;19.00;33.00;;;;;;5062933;28;20020;-85
2023/04/20 11:16:39;;;;;;;3.30;1.35;;;18.10;33.00;;;;;;5065252;28;20036;-86
2023/04/20 11:19:05;;;;;;;2.03;1.40;;;17.70;33.90;;;;;;5061078;28;20028;-84
2023/04/20 11:21:41;;;;;;;3.15;1.20;;;17.40;36.40;;;;;;5063119;28;20028;-84
2023/04/20 11:24:21;;;;;;;2.55;1.10;;;17.40;34.00;;;;;;5052646;28;20443;-85
2023/04/20 11:26:50;;;;;;;2.13;1.23;;;17.30;34.20;;;;;;5074859;28;20071;-83
2023/04/20 11:29:35;;;;;;;2.10;1.20;;;17.80;34.90;;;;;;5057683;28;20089;-85
2023/04/20 11:32:11;;;;;;;3.15;1.20;;;19.10;32.10;;;;;;5066547;28;20111;-84
2023/04/20 11:34:38;;;;;;;3.40;1.30;;;19.60;33.70;;;;;;5070926;28;20092;-84
2023/04/20 11:37:09;;;;;;;1.70;1.05;;;19.60;33.50;;;;;;5052978;28;20024;-87
2023/04/20 11:39:35;;;;;;;2.40;1.15;;;19.30;32.80;;;;;;5063907;28;20108;-85
2023/04/20 11:42:02;;;;;;;3.08;1.50;;;19.60;34.90;;;;;;5052288;28;20111;-88
2023/04/20 11:44:28;;;;;;;3.30;1.20;;;19.30;31.80;;;;;;5075655;28;20539;-87
2023/04/20 11:46:56;;;;;;;5.18;1.55;;;19.60;34.10;;;;;;5061207;28;20047;-84
2023/04/20 11:49:26;;;;;;;3.05;1.20;;;19.30;31.80;;;;;;5077683;28;20040;-89
2023/04/20 11:51:52;;;;;;;3.85;1.05;;;19.60;37.00;;;;;;5065746;28;20031;-85
2023/04/20 11:54:18;;;;;;;3.58;1.02;;;20.80;39.60;;;;;;5067386;28;20041;-84
2023/04/20 11:56:44;;;;;;;4.57;0.95;;;21.30;32.30;;;;;;5060315;28;20685;-85
2023/04/20 11:59:11;;;;;;;2.35;1.10;;;20.40;31.50;;;;;;5067453;28;20048;-87
2023/04/20 12:01:37;;;;;;;1.77;1.05;;;20.10;32.00;;;;;;5068032;28;20048;-85
2023/04/20 12:04:06;;;;;;;2.53;1.20;;;20.10;32.60;;;;;;5065378;28;20047;-87
2023/04/20 12:06:32;;;;;;;2.67;1.23;;;19.90;32.80;;;;;;5052012;28;20040;-89
2023/04/20 12:08:58;;;;;;;1.83;1.00;;;19.90;33.20;;;;;;5055167;28;20082;-87
2023/04/20 12:11:24;;;;;;;2.50;0.93;;;20.30;35.70;;;;;;5055221;28;20055;-86
2023/04/20 12:13:50;;;;;;;2.70;1.20;;;19.80;35.10;;;;;;5065004;28;20036;-85
2023/04/20 12:16:15;;;;;;;3.60;0.90;;;20.10;34.00;;;;;;5048936;28;20021;-88
2023/04/20 12:18:41;;;;;;;2.63;0.93;;;20.40;33.90;;;;;;5073082;28;20025;-88
2023/04/20 12:21:07;;;;;;;4.28;1.20;;;20.00;32.80;;;;;;5052366;28;20103;-87
2023/04/20 12:23:35;;;;;;;1.65;0.90;;;19.90;33.90;;;;;;5051492;28;20143;-89
2023/04/20 12:26:02;;;;;;;2.10;0.80;;;19.50;32.30;;;;;;5065717;28;20211;-88
2023/04/20 12:28:28;;;;;;;3.78;1.27;;;19.90;33.40;;;;;;5073912;28;20043;-87
2023/04/20 12:30:54;;;;;;;4.45;1.10;;;20.20;34.70;;;;;;5071960;28;20112;-86
2023/04/20 12:33:19;;;;;;;3.53;0.95;;;20.40;36.20;;;;;;5070859;28;20041;-86
2023/04/20 12:35:45;;;;;;;2.30;0.95;;;20.60;34.80;;;;;;5069622;28;20025;-84
2023/04/20 12:38:11;;;;;;;1.75;0.90;;;20.20;32.80;;;;;;5088885;28;20082;-84
2023/04/20 12:40:36;;;;;;;2.90;0.98;;;19.70;33.30;;;;;;5090097;28;20034;-83
2023/04/20 12:43:02;;;;;;;6.57;1.27;;;19.80;32.10;;;;;;5068198;28;20036;-81